createdAt,value
2022-08-21T00:02:15.000Z,2.95
2022-08-21T00:04:48.245Z,2.28
2022-08-21T00:07:25.328Z,2.78
2022-08-21T00:09:54.357Z,2.72
2022-08-21T00:12:24.673Z,3.50
2022-08-21T00:14:58.112Z,2.80
2022-08-21T00:17:27.322Z,2.40
2022-08-21T00:19:55.680Z,2.75
2022-08-21T00:22:24.149Z,3.38
2022-08-21T00:24:52.862Z,2.97
2022-08-21T00:27:23.092Z,2.75
2022-08-21T00:29:51.532Z,2.70
2022-08-21T00:32:23.369Z,3.10
2022-08-21T00:34:52.078Z,2.92
2022-08-21T00:37:21.174Z,3.60
2022-08-21T00:39:49.789Z,3.30
2022-08-21T00:42:20.884Z,2.92
2022-08-21T00:44:52.606Z,3.30
2022-08-21T00:47:21.849Z,3.17
2022-08-21T00:49:50.685Z,2.92
2022-08-21T00:52:24.230Z,2.58
2022-08-21T00:54:54.129Z,3.30
2022-08-21T00:57:32.084Z,2.60
2022-08-21T01:00:09.240Z,3.03
2022-08-21T01:02:37.676Z,3.15
2022-08-21T01:05:07.505Z,2.95
2022-08-21T01:07:36.341Z,3.42
2022-08-21T01:10:05.949Z,3.13
2022-08-21T01:12:34.934Z,2.45
2022-08-21T01:15:08.278Z,2.80
2022-08-21T01:17:37.782Z,2.80
2022-08-21T01:20:11.148Z,2.78
2022-08-21T01:22:41.537Z,2.88
2022-08-21T01:25:13.161Z,3.15
2022-08-21T01:27:41.726Z,3.88
2022-08-21T01:30:16.778Z,2.85
2022-08-21T01:32:45.364Z,2.50
2022-08-21T01:35:15.179Z,3.30
2022-08-21T01:37:45.956Z,2.78
2022-08-21T01:40:19.278Z,2.72
2022-08-21T01:42:49.661Z,3.28
2022-08-21T01:45:18.561Z,3.33
2022-08-21T01:47:47.795Z,2.95
2022-08-21T01:50:21.134Z,3.25
2022-08-21T01:52:52.920Z,3.10
2022-08-21T01:55:22.920Z,3.95
2022-08-21T01:57:52.017Z,3.13
2022-08-21T02:00:24.893Z,3.90
2022-08-21T02:02:54.405Z,3.35
2022-08-21T02:05:23.109Z,3.22
2022-08-21T02:07:57.530Z,3.13
2022-08-21T02:10:30.736Z,4.60
2022-08-21T02:13:00.887Z,4.28
2022-08-21T02:15:31.181Z,4.38
2022-08-21T02:18:02.589Z,4.57
2022-08-21T02:20:37.433Z,4.18
2022-08-21T02:25:37.466Z,4.13
2022-08-21T02:28:08.699Z,4.50
2022-08-21T02:30:41.145Z,4.25
2022-08-21T02:33:11.834Z,3.95
2022-08-21T02:35:43.561Z,4.82
2022-08-21T02:38:16.848Z,4.25
2022-08-21T02:40:50.919Z,4.20
2022-08-21T02:43:22.577Z,3.95
2022-08-21T02:45:52.436Z,4.57
2022-08-21T02:48:25.897Z,3.95
2022-08-21T02:50:57.561Z,4.28
2022-08-21T02:53:28.624Z,4.03
2022-08-21T02:56:00.796Z,4.57
2022-08-21T02:58:32.353Z,4.03
2022-08-21T03:01:01.146Z,3.72
2022-08-21T03:03:30.558Z,3.65
2022-08-21T03:05:59.171Z,3.90
2022-08-21T03:08:28.912Z,4.18
2022-08-21T03:10:57.940Z,3.80
2022-08-21T03:13:26.640Z,4.60
2022-08-21T03:15:55.105Z,4.75
2022-08-21T03:18:24.206Z,4.35
2022-08-21T03:20:53.294Z,3.88
2022-08-21T03:23:21.872Z,4.55
2022-08-21T03:25:52.095Z,4.30
2022-08-21T03:28:24.746Z,4.57
2022-08-21T03:30:54.226Z,4.03
2022-08-21T03:33:23.759Z,3.45
2022-08-21T03:36:02.090Z,3.95
2022-08-21T03:38:33.248Z,3.50
2022-08-21T03:41:03.771Z,3.80
2022-08-21T03:43:32.889Z,3.75
2022-08-21T03:46:02.895Z,4.97
2022-08-21T03:48:31.993Z,4.10
2022-08-21T03:51:00.755Z,4.85
2022-08-21T03:53:29.346Z,4.55
2022-08-21T03:55:58.165Z,4.43
2022-08-21T03:58:30.162Z,4.65
2022-08-21T04:01:01.887Z,4.38
2022-08-21T04:03:31.015Z,4.53
2022-08-21T04:06:00.225Z,4.60
2022-08-21T04:08:28.661Z,4.95
2022-08-21T04:11:00.463Z,5.60
2022-08-21T04:13:30.343Z,5.32
2022-08-21T04:16:00.113Z,5.43
2022-08-21T04:18:28.813Z,5.85
2022-08-21T04:20:59.746Z,4.45
2022-08-21T04:23:28.712Z,5.75
2022-08-21T04:25:59.053Z,4.93
2022-08-21T04:28:30.472Z,5.47
2022-08-21T04:31:00.146Z,5.80
2022-08-21T04:33:28.583Z,5.60
2022-08-21T04:35:57.304Z,4.65
2022-08-21T04:38:25.690Z,5.07
2022-08-21T04:40:54.672Z,5.88
2022-08-21T04:43:24.399Z,5.20
2022-08-21T04:45:55.691Z,4.88
2022-08-21T04:48:26.165Z,4.50
2022-08-21T04:50:59.608Z,5.38
2022-08-21T04:53:35.729Z,4.60
2022-08-21T04:56:10.331Z,5.65
2022-08-21T04:58:42.552Z,5.50
2022-08-21T05:01:19.235Z,4.88
2022-08-21T05:03:49.880Z,4.20
2022-08-21T05:06:19.428Z,4.95
2022-08-21T05:08:50.965Z,5.38
2022-08-21T05:11:27.415Z,4.80
2022-08-21T05:13:57.224Z,4.88
2022-08-21T05:16:37.055Z,4.53
2022-08-21T05:19:07.260Z,4.72
2022-08-21T05:21:36.984Z,5.30
2022-08-21T05:24:05.813Z,5.13
2022-08-21T05:26:38.295Z,4.97
2022-08-21T05:29:15.137Z,5.25
2022-08-21T05:31:46.296Z,5.53
2022-08-21T05:34:16.097Z,5.18
2022-08-21T05:36:44.784Z,5.90
2022-08-21T05:39:13.187Z,5.55
2022-08-21T05:41:41.661Z,5.47
2022-08-21T05:44:10.594Z,6.13
2022-08-21T05:46:40.312Z,5.07
2022-08-21T05:49:10.212Z,6.32
2022-08-21T05:51:38.824Z,6.15
2022-08-21T05:54:07.448Z,4.95
2022-08-21T05:56:36.218Z,5.25
2022-08-21T05:59:08.725Z,5.20
2022-08-21T06:01:37.520Z,4.50
2022-08-21T06:04:06.960Z,4.80
2022-08-21T06:06:37.076Z,4.78
2022-08-21T06:09:06.093Z,4.80
2022-08-21T06:11:35.495Z,4.20
2022-08-21T06:14:05.137Z,3.92
2022-08-21T06:16:33.519Z,3.90
2022-08-21T06:19:03.063Z,3.13
2022-08-21T06:21:32.348Z,3.60
2022-08-21T06:24:02.148Z,2.95
2022-08-21T06:26:30.566Z,3.17
2022-08-21T06:28:59.207Z,3.88
2022-08-21T06:31:30.778Z,3.85
2022-08-21T06:33:59.468Z,2.92
2022-08-21T06:36:28.109Z,5.47
2022-08-21T06:38:56.992Z,3.35
2022-08-21T06:41:27.897Z,2.47
2022-08-21T06:43:58.053Z,3.00
2022-08-21T06:46:29.918Z,2.97
2022-08-21T06:48:59.181Z,3.20
2022-08-21T06:51:28.684Z,2.97
2022-08-21T06:53:59.457Z,2.97
2022-08-21T06:56:29.434Z,2.55
2022-08-21T06:59:00.205Z,3.42
2022-08-21T07:01:29.552Z,3.40
2022-08-21T07:03:58.117Z,3.03
2022-08-21T07:06:26.936Z,2.95
2022-08-21T07:08:58.934Z,2.80
2022-08-21T07:11:29.231Z,3.33
2022-08-21T07:13:58.066Z,2.60
2022-08-21T07:16:27.083Z,3.00
2022-08-21T07:18:55.522Z,2.63
2022-08-21T07:21:26.199Z,3.28
2022-08-21T07:23:55.557Z,2.72
2022-08-21T07:26:25.624Z,3.05
2022-08-21T07:28:56.188Z,1.95
2022-08-21T07:31:27.070Z,2.88
2022-08-21T07:33:55.832Z,2.95
2022-08-21T07:36:24.503Z,2.13
2022-08-21T07:38:53.287Z,2.38
2022-08-21T07:41:26.327Z,2.55
2022-08-21T07:43:56.248Z,2.55
2022-08-21T07:46:25.752Z,2.55
2022-08-21T07:48:54.473Z,2.00
2022-08-21T07:51:28.540Z,2.28
2022-08-21T07:54:00.205Z,2.70
2022-08-21T07:56:29.197Z,2.72
2022-08-21T07:58:58.935Z,2.53
2022-08-21T08:01:28.134Z,2.30
2022-08-21T08:03:57.188Z,2.67
2022-08-21T08:06:26.949Z,2.50
2022-08-21T08:08:55.358Z,2.50
2022-08-21T08:11:23.773Z,2.50
2022-08-21T08:13:54.597Z,2.90
2022-08-21T08:16:24.414Z,3.20
2022-08-21T08:18:52.781Z,2.45
2022-08-21T08:21:21.871Z,3.05
2022-08-21T08:23:50.740Z,2.78
2022-08-21T08:26:19.156Z,3.85
2022-08-21T08:28:48.709Z,3.15
2022-08-21T08:31:17.093Z,2.30
2022-08-21T08:33:46.962Z,3.22
2022-08-21T08:36:17.162Z,2.78
2022-08-21T08:38:48.889Z,3.05
2022-08-21T08:41:22.289Z,3.00
2022-08-21T08:43:55.687Z,2.58
2022-08-21T08:46:32.945Z,4.13
2022-08-21T08:49:08.798Z,3.28
2022-08-21T08:51:48.502Z,3.20
2022-08-21T08:54:32.443Z,3.30
2022-08-21T08:57:02.532Z,3.20
2022-08-21T08:59:40.589Z,3.30
2022-08-21T09:02:11.941Z,3.38
2022-08-21T09:04:42.810Z,3.33
2022-08-21T09:07:21.960Z,3.58
2022-08-21T09:10:04.104Z,2.90
2022-08-21T09:12:46.921Z,4.63
2022-08-21T09:15:30.523Z,3.22
2022-08-21T09:18:29.197Z,2.88
2022-08-21T09:21:11.958Z,2.58
2022-08-21T09:23:52.288Z,2.80
2022-08-21T09:26:24.812Z,3.28
2022-08-21T09:28:57.099Z,3.00
2022-08-21T09:31:31.439Z,3.00
2022-08-21T09:34:01.937Z,3.58
2022-08-21T09:36:40.408Z,2.72
2022-08-21T09:39:11.045Z,2.38
2022-08-21T09:41:40.864Z,2.33
2022-08-21T09:44:10.725Z,2.15
2022-08-21T09:46:39.194Z,2.50
2022-08-21T09:49:13.443Z,2.33
2022-08-21T09:51:55.190Z,2.25
2022-08-21T09:54:31.384Z,2.03
2022-08-21T09:57:20.365Z,1.83
2022-08-21T09:59:49.615Z,2.22
2022-08-21T10:02:32.797Z,1.92
2022-08-21T10:05:04.145Z,2.10
2022-08-21T10:07:38.402Z,2.20
2022-08-21T10:10:10.741Z,2.28
2022-08-21T10:12:51.853Z,2.38
2022-08-21T10:15:26.429Z,1.67
2022-08-21T10:18:05.937Z,2.50
2022-08-21T10:20:46.257Z,2.40
2022-08-21T10:23:37.764Z,2.35
2022-08-21T10:26:22.979Z,2.38
2022-08-21T10:29:02.597Z,1.92
2022-08-21T10:31:45.211Z,2.00
2022-08-21T10:34:31.652Z,2.03
2022-08-21T10:37:19.885Z,2.10
2022-08-21T10:40:03.089Z,2.13
2022-08-21T10:42:41.134Z,2.30
2022-08-21T10:45:24.437Z,2.25
2022-08-21T10:47:59.137Z,2.28
2022-08-21T10:50:33.978Z,1.88
2022-08-21T10:53:18.020Z,2.05
2022-08-21T10:55:58.195Z,1.73
2022-08-21T10:58:32.244Z,2.28
2022-08-21T11:01:14.203Z,1.70
2022-08-21T11:03:47.699Z,1.65
2022-08-21T11:06:22.864Z,2.10
2022-08-21T11:09:00.620Z,1.58
2022-08-21T11:11:38.252Z,2.05
2022-08-21T11:14:22.576Z,2.00
2022-08-21T11:16:59.431Z,1.85
2022-08-21T11:19:34.205Z,2.05
2022-08-21T11:22:15.402Z,2.17
2022-08-21T11:24:52.672Z,2.10
2022-08-21T11:27:28.674Z,2.25
2022-08-21T11:30:00.885Z,1.90
2022-08-21T11:32:57.452Z,1.77
2022-08-21T11:35:39.839Z,2.00
2022-08-21T11:38:30.481Z,2.00
2022-08-21T11:41:25.401Z,1.73
2022-08-21T11:44:14.091Z,2.10
2022-08-21T11:46:51.331Z,2.25
2022-08-21T11:49:43.708Z,3.35
2022-08-21T11:52:20.418Z,1.73
2022-08-21T11:54:55.502Z,2.10
2022-08-21T11:57:31.280Z,2.20
2022-08-21T12:00:09.286Z,1.88
2022-08-21T12:02:47.155Z,2.15
2022-08-21T12:05:31.898Z,2.03
2022-08-21T12:08:08.949Z,2.00
2022-08-21T12:10:41.913Z,1.80
2022-08-21T12:13:23.385Z,1.95
2022-08-21T12:16:13.852Z,2.08
2022-08-21T12:18:43.591Z,2.22
2022-08-21T12:21:26.925Z,1.50
2022-08-21T12:24:17.177Z,2.15
2022-08-21T12:26:53.099Z,2.33
2022-08-21T12:29:27.733Z,2.45
2022-08-21T12:32:02.213Z,2.22
2022-08-21T12:34:38.511Z,1.77
2022-08-21T12:37:17.401Z,1.90
2022-08-21T12:39:50.504Z,1.70
2022-08-21T12:42:24.941Z,2.17
2022-08-21T12:45:00.636Z,1.83
2022-08-21T12:47:36.844Z,1.92
2022-08-21T12:50:09.354Z,2.20
2022-08-21T12:52:46.122Z,1.90
2022-08-21T12:55:16.725Z,1.77
2022-08-21T12:57:45.103Z,1.75
2022-08-21T13:00:17.040Z,1.80
2022-08-21T13:02:51.721Z,1.73
2022-08-21T13:05:32.958Z,2.10
2022-08-21T13:08:06.481Z,2.15
2022-08-21T13:10:36.907Z,1.80
2022-08-21T13:13:12.297Z,1.77
2022-08-21T13:15:47.757Z,1.52
2022-08-21T13:18:26.257Z,1.67
2022-08-21T13:21:04.554Z,2.03
2022-08-21T13:23:33.544Z,1.75
2022-08-21T13:26:03.755Z,1.73
2022-08-21T13:28:38.660Z,1.80
2022-08-21T13:31:12.201Z,1.70
2022-08-21T13:33:43.469Z,2.67
2022-08-21T13:36:19.294Z,1.42
2022-08-21T13:38:48.498Z,1.67
2022-08-21T13:41:24.495Z,1.50
2022-08-21T13:44:03.029Z,2.17
2022-08-21T13:46:35.456Z,1.88
2022-08-21T13:49:07.977Z,1.88
2022-08-21T13:51:37.226Z,2.05
2022-08-21T13:54:23.142Z,1.98
2022-08-21T13:56:51.782Z,1.65
2022-08-21T13:59:29.857Z,1.55
2022-08-21T14:02:02.406Z,1.92
2022-08-21T14:04:40.148Z,1.95
2022-08-21T14:07:19.932Z,1.60
2022-08-21T14:09:49.485Z,1.83
2022-08-21T14:12:30.189Z,1.35
2022-08-21T14:15:00.660Z,1.80
2022-08-21T14:17:34.166Z,1.50
2022-08-21T14:20:06.363Z,1.52
2022-08-21T14:22:40.936Z,1.67
2022-08-21T14:25:15.309Z,1.60
2022-08-21T14:27:52.406Z,1.95
2022-08-21T14:30:32.582Z,1.73
2022-08-21T14:33:01.737Z,2.03
2022-08-21T14:35:31.970Z,1.85
2022-08-21T14:38:00.676Z,1.42
2022-08-21T14:40:29.465Z,1.90
2022-08-21T14:42:58.926Z,1.60
2022-08-21T14:45:31.068Z,1.40
2022-08-21T14:48:00.898Z,1.50
2022-08-21T14:50:30.813Z,1.65
2022-08-21T14:52:59.300Z,1.65
2022-08-21T14:55:29.065Z,1.25
2022-08-21T14:57:59.627Z,1.80
2022-08-21T15:00:35.735Z,1.75
2022-08-21T15:03:05.197Z,1.42
2022-08-21T15:05:34.970Z,1.60
2022-08-21T15:08:04.023Z,1.75
2022-08-21T15:10:34.868Z,1.85
2022-08-21T15:13:04.563Z,1.38
2022-08-21T15:15:40.657Z,1.90
2022-08-21T15:18:09.769Z,1.52
2022-08-21T15:20:40.254Z,1.52
2022-08-21T15:23:14.758Z,1.65
2022-08-21T15:25:44.475Z,1.63
2022-08-21T15:28:14.589Z,1.50
2022-08-21T15:30:44.828Z,1.40
2022-08-21T15:33:13.484Z,1.67
2022-08-21T15:35:43.320Z,1.38
2022-08-21T15:38:11.828Z,1.73
2022-08-21T15:40:47.737Z,1.77
2022-08-21T15:43:30.320Z,1.58
2022-08-21T15:46:01.700Z,1.63
2022-08-21T15:48:30.607Z,1.50
2022-08-21T15:51:00.334Z,1.70
2022-08-21T15:53:28.763Z,1.92
2022-08-21T15:55:57.148Z,2.58
2022-08-21T15:58:25.809Z,1.67
2022-08-21T16:00:54.193Z,1.60
2022-08-21T16:03:23.051Z,1.60
2022-08-21T16:05:53.356Z,1.38
2022-08-21T16:08:23.398Z,1.73
2022-08-21T16:10:52.892Z,1.45
2022-08-21T16:13:27.724Z,1.60
2022-08-21T16:15:56.435Z,1.48
2022-08-21T16:18:26.584Z,1.58
2022-08-21T16:20:55.406Z,1.77
2022-08-21T16:23:25.192Z,1.42
2022-08-21T16:25:53.924Z,1.52
2022-08-21T16:28:24.677Z,1.45
2022-08-21T16:30:53.404Z,1.27
2022-08-21T16:33:36.848Z,1.35
2022-08-21T16:36:07.293Z,1.45
2022-08-21T16:38:38.866Z,1.92
2022-08-21T16:41:12.107Z,1.50
2022-08-21T16:43:42.782Z,1.80
2022-08-21T16:46:14.112Z,1.98
2022-08-21T16:48:44.883Z,1.60
2022-08-21T16:51:13.835Z,1.55
2022-08-21T16:53:44.292Z,1.60
2022-08-21T16:56:16.725Z,1.65
2022-08-21T16:58:48.629Z,1.25
2022-08-21T17:01:20.971Z,1.25
2022-08-21T17:03:51.754Z,1.67
2022-08-21T17:06:22.025Z,1.80
2022-08-21T17:08:53.037Z,1.92
2022-08-21T17:11:36.494Z,2.50
2022-08-21T17:14:12.840Z,1.60
2022-08-21T17:16:45.486Z,1.65
2022-08-21T17:19:14.704Z,1.90
2022-08-21T17:21:43.344Z,2.10
2022-08-21T17:24:15.725Z,2.10
2022-08-21T17:26:45.605Z,1.60
2022-08-21T17:29:16.092Z,1.58
2022-08-21T17:31:45.648Z,1.30
2022-08-21T17:34:16.243Z,1.65
2022-08-21T17:36:44.622Z,2.05
2022-08-21T17:39:22.507Z,1.90
2022-08-21T17:42:06.496Z,6.13
2022-08-21T17:44:35.922Z,1.92
2022-08-21T17:47:04.685Z,2.03
2022-08-21T17:49:33.425Z,1.88
2022-08-21T17:52:01.853Z,1.75
2022-08-21T17:54:32.100Z,1.95
2022-08-21T17:57:01.076Z,1.60
2022-08-21T17:59:29.918Z,1.77
2022-08-21T18:02:01.436Z,1.33
2022-08-21T18:04:31.059Z,2.03
2022-08-21T18:06:59.521Z,2.13
2022-08-21T18:09:28.458Z,1.67
2022-08-21T18:12:00.107Z,2.05
2022-08-21T18:14:33.441Z,1.70
2022-08-21T18:17:03.269Z,1.90
2022-08-21T18:19:31.659Z,2.22
2022-08-21T18:22:04.428Z,2.17
2022-08-21T18:24:33.352Z,1.73
2022-08-21T18:27:04.196Z,4.97
2022-08-21T18:29:32.913Z,3.00
2022-08-21T18:32:03.221Z,2.70
2022-08-21T18:34:34.904Z,2.05
2022-08-21T18:37:05.156Z,2.10
2022-08-21T18:39:36.793Z,1.83
2022-08-21T18:42:11.984Z,2.10
2022-08-21T18:47:14.901Z,2.08
2022-08-21T18:49:43.612Z,1.92
2022-08-21T18:52:20.284Z,2.30
2022-08-21T18:54:49.745Z,2.28
2022-08-21T18:57:20.904Z,2.88
2022-08-21T18:59:49.558Z,1.90
2022-08-21T19:02:17.913Z,1.80
2022-08-21T19:04:48.134Z,2.95
2022-08-21T19:07:19.731Z,2.40
2022-08-21T19:10:07.613Z,2.50
2022-08-21T19:12:41.521Z,2.22
2022-08-21T19:15:15.582Z,1.95
2022-08-21T19:17:47.024Z,2.75
2022-08-21T19:20:36.427Z,5.15
2022-08-21T19:23:07.433Z,2.40
2022-08-21T19:25:37.373Z,1.70
2022-08-21T19:28:14.263Z,1.90
2022-08-21T19:30:58.211Z,2.08
2022-08-21T19:33:34.074Z,2.25
2022-08-21T19:36:04.290Z,2.13
2022-08-21T19:38:32.919Z,2.20
2022-08-21T19:41:02.159Z,1.95
2022-08-21T19:43:35.165Z,1.95
2022-08-21T19:46:04.016Z,1.55
2022-08-21T19:48:33.583Z,2.03
2022-08-21T19:51:02.078Z,1.88
2022-08-21T19:53:30.443Z,2.35
2022-08-21T19:55:58.969Z,1.98
2022-08-21T19:58:38.914Z,1.75
2022-08-21T20:01:16.838Z,1.85
2022-08-21T20:03:53.812Z,2.22
2022-08-21T20:06:23.889Z,2.25
2022-08-21T20:08:54.676Z,2.47
2022-08-21T20:11:31.285Z,2.05
2022-08-21T20:14:02.124Z,3.10
2022-08-21T20:16:32.157Z,4.13
2022-08-21T20:19:03.306Z,2.13
2022-08-21T20:21:43.481Z,2.17
2022-08-21T20:24:14.707Z,1.65
2022-08-21T20:26:48.760Z,2.03
2022-08-21T20:29:23.863Z,1.83
2022-08-21T20:31:52.793Z,2.33
2022-08-21T20:34:21.328Z,1.75
2022-08-21T20:36:50.016Z,1.80
2022-08-21T20:39:23.948Z,1.98
2022-08-21T20:41:53.905Z,1.90
2022-08-21T20:44:29.657Z,2.13
2022-08-21T20:46:59.028Z,2.17
2022-08-21T20:49:34.595Z,2.05
2022-08-21T20:52:05.033Z,2.30
2022-08-21T20:54:41.627Z,1.98
2022-08-21T20:57:16.096Z,3.17
2022-08-21T20:59:54.932Z,2.28
2022-08-21T21:02:38.719Z,2.03
2022-08-21T21:05:16.112Z,2.33
2022-08-21T21:08:02.348Z,1.95
2022-08-21T21:10:38.352Z,2.80
2022-08-21T21:13:21.165Z,1.80
2022-08-21T21:15:56.596Z,2.38
2022-08-21T21:18:32.491Z,2.03
2022-08-21T21:23:45.349Z,1.42
2022-08-21T21:26:19.385Z,2.08
2022-08-21T21:28:55.876Z,2.08
2022-08-21T21:31:29.541Z,2.00
2022-08-21T21:36:43.791Z,1.60
2022-08-21T21:39:36.348Z,1.90
2022-08-21T21:45:09.611Z,2.30
2022-08-21T21:47:59.060Z,1.83
2022-08-21T21:50:49.551Z,2.33
2022-08-21T21:53:37.994Z,2.42
2022-08-21T21:56:18.449Z,2.63
2022-08-21T21:59:29.924Z,2.28
2022-08-21T22:02:06.996Z,1.90
2022-08-21T22:04:50.967Z,1.88
2022-08-21T22:07:32.082Z,1.90
2022-08-21T22:10:30.058Z,2.60
2022-08-21T22:13:13.612Z,2.72
2022-08-21T22:18:28.001Z,2.08
2022-08-21T22:21:05.290Z,2.55
2022-08-21T22:23:39.535Z,2.08
2022-08-21T22:26:14.488Z,1.83
2022-08-21T22:28:47.701Z,1.90
2022-08-21T22:31:21.624Z,1.90
2022-08-21T22:34:17.998Z,2.38
2022-08-21T22:36:59.391Z,2.00
2022-08-21T22:39:38.584Z,1.80
2022-08-21T22:42:13.519Z,1.58
2022-08-21T22:44:52.900Z,1.98
2022-08-21T22:47:24.988Z,1.80
2022-08-21T22:49:59.636Z,1.85
2022-08-21T22:52:35.269Z,1.75
2022-08-21T22:55:24.165Z,1.73
2022-08-21T22:58:10.526Z,1.27
2022-08-21T23:00:50.549Z,1.67
2022-08-21T23:03:33.987Z,1.67
2022-08-21T23:06:13.067Z,1.55
2022-08-21T23:08:44.068Z,1.30
2022-08-21T23:11:17.757Z,1.00
2022-08-21T23:13:51.016Z,1.48
2022-08-21T23:19:50.789Z,1.55
2022-08-21T23:22:37.292Z,1.30
2022-08-21T23:25:32.643Z,1.40
2022-08-21T23:28:13.629Z,1.73
2022-08-21T23:30:54.432Z,1.13
2022-08-21T23:33:44.845Z,1.40
2022-08-21T23:36:41.088Z,1.23
2022-08-21T23:39:26.069Z,1.10
2022-08-21T23:42:02.185Z,1.00
2022-08-21T23:44:47.317Z,1.13
2022-08-21T23:47:34.977Z,1.10
2022-08-21T23:50:14.012Z,0.90
2022-08-21T23:53:00.688Z,1.35
2022-08-21T23:56:01.112Z,1.25
2022-08-21T23:58:45.389Z,1.30
